Airport ID:CYTF
Update Time (UTC):04/10/2022 15:32
Wind Speed (Knots):5
Wind Direction (Magnetic):230
Temperature (°C):14.9
Dew Point (°C):3.7
Humidity (%):47
Altimeter (inHg):30.17
Density Altitude (Feet):\\\\
Visibility (Miles):6
Clouds (Hundreds of feet):NCD
Present Weather:
METAR:METAR CYTF 041530Z AUTO 22003KT 160V270 10SM NCD 15/04 A3016

The data displayed is for advisory purposes only and is not to be used for flight planning or operations.

This page is not automatically refreshed. Reload the page to see current data.